Time;durP1;ratioP1;P1;durP2;ratioP2;P2;SDS_P1;SDS_P2;PMS_P1;PMS_P2;Temp;Humidity;BMP_temperature;BMP_pressure;BME280_temperature;BME280_humidity;BME280_pressure;Samples;Min_cycle;Max_cycle;Signal;HPM_P1;HPM_P2
2023/05/24 00:00:56;;;;;;;2.97;1.00;;;8.60;99.90;;;;;;5068816;28;20055;-74
2023/05/24 00:03:21;;;;;;;5.00;0.93;;;8.60;99.90;;;;;;5067346;28;20170;-74
2023/05/24 00:05:47;;;;;;;3.90;1.02;;;8.70;99.90;;;;;;5068554;28;20038;-74
2023/05/24 00:08:14;;;;;;;8.80;1.70;;;8.70;99.90;;;;;;5050904;28;20043;-74
2023/05/24 00:10:40;;;;;;;3.53;1.02;;;8.80;99.90;;;;;;5069201;28;20101;-74
2023/05/24 00:13:06;;;;;;;5.68;1.58;;;8.80;99.90;;;;;;5102832;27;20051;-74
2023/05/24 00:15:32;;;;;;;3.83;1.30;;;8.90;99.90;;;;;;5067021;28;20039;-74
2023/05/24 00:17:57;;;;;;;4.32;1.60;;;8.90;99.90;;;;;;5066860;28;20048;-74
2023/05/24 00:20:23;;;;;;;5.53;1.60;;;8.80;99.90;;;;;;5070698;28;20077;-74
2023/05/24 00:22:48;;;;;;;5.05;1.58;;;8.70;99.90;;;;;;5065883;28;20122;-74
2023/05/24 00:25:14;;;;;;;10.18;1.80;;;8.70;99.90;;;;;;5064846;28;20496;-74
2023/05/24 00:27:40;;;;;;;5.50;1.02;;;8.60;99.90;;;;;;5103150;27;20646;-74
2023/05/24 00:30:06;;;;;;;6.65;1.63;;;8.50;99.90;;;;;;5066098;28;20032;-74
2023/05/24 00:32:31;;;;;;;4.65;1.48;;;8.50;99.90;;;;;;5069107;28;20098;-74
2023/05/24 00:34:57;;;;;;;6.25;1.10;;;8.50;99.90;;;;;;5065851;28;20040;-74
2023/05/24 00:37:23;;;;;;;8.60;1.40;;;8.50;99.90;;;;;;5068433;28;20498;-74
2023/05/24 00:39:48;;;;;;;9.82;1.40;;;8.50;99.90;;;;;;5068244;28;20044;-74
2023/05/24 00:42:14;;;;;;;7.28;1.98;;;8.40;99.90;;;;;;5065834;28;20125;-74
2023/05/24 00:44:40;;;;;;;9.45;2.08;;;8.40;99.90;;;;;;5099952;28;20060;-74
2023/05/24 00:47:06;;;;;;;5.00;1.05;;;8.40;99.90;;;;;;5068438;28;20037;-74
2023/05/24 00:49:32;;;;;;;5.60;1.50;;;8.40;99.90;;;;;;5066713;28;20266;-74
2023/05/24 00:51:58;;;;;;;6.45;1.60;;;8.30;99.90;;;;;;5065466;28;20246;-74
2023/05/24 00:54:25;;;;;;;6.07;1.35;;;8.30;99.90;;;;;;5099692;28;20139;-74
2023/05/24 00:56:52;;;;;;;5.10;1.85;;;8.20;99.90;;;;;;5066836;28;20086;-74
2023/05/24 00:59:18;;;;;;;4.68;1.73;;;8.20;99.90;;;;;;5069094;28;20036;-74
2023/05/24 01:01:45;;;;;;;8.07;1.40;;;8.20;99.90;;;;;;5100016;28;20048;-74
2023/05/24 01:04:11;;;;;;;11.13;1.88;;;8.20;99.90;;;;;;5070062;28;20090;-74
2023/05/24 01:07:06;;;;;;;3.60;1.30;;;8.20;99.90;;;;;;5063776;28;20632;-74
2023/05/24 01:09:53;;;;;;;11.05;1.70;;;8.20;99.90;;;;;;5068175;28;20036;-77
2023/05/24 01:12:31;;;;;;;3.55;1.40;;;8.20;99.90;;;;;;5070849;28;20037;-77
2023/05/24 01:15:09;;;;;;;9.48;1.65;;;8.20;99.90;;;;;;5071200;28;20110;-77
2023/05/24 01:17:37;;;;;;;8.75;1.50;;;8.20;99.90;;;;;;5065095;28;20059;-77
2023/05/24 01:20:08;;;;;;;8.15;1.65;;;8.20;99.90;;;;;;5069399;28;20036;-77
2023/05/24 01:22:41;;;;;;;5.10;1.63;;;8.20;99.90;;;;;;5082548;28;20139;-74
2023/05/24 01:25:15;;;;;;;3.90;1.90;;;8.20;99.90;;;;;;5065523;28;20044;-74
2023/05/24 01:27:42;;;;;;;9.60;1.53;;;8.20;99.90;;;;;;5050305;28;20684;-74
2023/05/24 01:30:08;;;;;;;13.02;1.90;;;8.20;99.90;;;;;;5099892;27;20313;-74
2023/05/24 01:32:34;;;;;;;5.22;1.70;;;8.20;99.90;;;;;;5067868;28;20032;-74
2023/05/24 01:35:00;;;;;;;5.18;2.00;;;8.20;99.90;;;;;;5068049;28;20078;-74
2023/05/24 01:37:25;;;;;;;9.88;2.47;;;8.30;99.90;;;;;;5072282;28;20497;-74
2023/05/24 01:39:51;;;;;;;10.10;1.88;;;8.30;99.90;;;;;;5069437;28;20132;-74
2023/05/24 01:42:26;;;;;;;5.47;2.03;;;8.30;99.90;;;;;;5069140;28;20213;-77
2023/05/24 01:45:11;;;;;;;7.97;1.98;;;8.30;99.90;;;;;;5079009;28;20501;-77
2023/05/24 01:48:01;;;;;;;6.40;1.10;;;8.40;99.90;;;;;;5070549;28;20036;-77
2023/05/24 01:50:42;;;;;;;5.00;1.73;;;8.40;99.90;;;;;;5071091;28;20465;-77
2023/05/24 01:53:11;;;;;;;8.43;1.70;;;8.40;99.90;;;;;;5101962;27;20045;-77
2023/05/24 01:55:38;;;;;;;8.65;1.95;;;8.40;99.90;;;;;;5104731;27;20048;-76
2023/05/24 01:58:05;;;;;;;8.52;1.80;;;8.40;99.90;;;;;;5102073;27;20401;-77
2023/05/24 02:00:31;;;;;;;9.05;1.55;;;8.40;99.90;;;;;;5070389;28;20036;-77
2023/05/24 02:02:57;;;;;;;5.53;1.63;;;8.40;99.90;;;;;;5073598;28;20127;-77
2023/05/24 02:05:23;;;;;;;6.57;1.42;;;8.40;99.90;;;;;;5073828;28;20037;-76
2023/05/24 02:07:49;;;;;;;7.20;1.88;;;8.40;99.90;;;;;;5073816;28;20037;-76
2023/05/24 02:10:15;;;;;;;5.55;1.77;;;8.40;99.90;;;;;;5069735;28;20478;-76
2023/05/24 02:12:41;;;;;;;5.40;2.00;;;8.40;99.90;;;;;;5066139;28;20093;-74
2023/05/24 02:15:07;;;;;;;7.90;1.38;;;8.40;99.90;;;;;;5069140;28;20037;-74
2023/05/24 02:17:34;;;;;;;6.07;1.58;;;8.50;99.90;;;;;;5074351;28;20037;-74
2023/05/24 02:20:00;;;;;;;7.55;2.33;;;8.50;99.90;;;;;;5067663;28;20700;-74
2023/05/24 02:22:26;;;;;;;6.07;1.40;;;8.50;99.90;;;;;;5070645;28;20045;-74
2023/05/24 02:24:52;;;;;;;8.98;1.90;;;8.50;99.90;;;;;;5065568;28;20531;-76
2023/05/24 02:27:18;;;;;;;8.10;1.55;;;8.50;99.90;;;;;;5068195;28;20028;-74
2023/05/24 02:29:43;;;;;;;6.53;2.08;;;8.50;99.90;;;;;;5065566;28;20075;-74
2023/05/24 02:32:09;;;;;;;7.95;1.60;;;8.50;99.90;;;;;;5052736;28;20028;-74
2023/05/24 02:34:34;;;;;;;4.53;1.63;;;8.50;99.90;;;;;;5111653;27;20077;-74
2023/05/24 02:37:01;;;;;;;4.32;1.60;;;8.50;99.90;;;;;;5053605;28;20035;-75
2023/05/24 02:39:26;;;;;;;8.27;1.70;;;8.50;99.90;;;;;;5065689;28;20032;-75
2023/05/24 02:41:52;;;;;;;3.30;1.42;;;8.60;99.90;;;;;;5075249;28;20044;-75
2023/05/24 02:44:17;;;;;;;5.10;1.80;;;8.60;99.90;;;;;;5066602;28;20046;-75
2023/05/24 02:46:43;;;;;;;10.45;1.77;;;8.50;99.90;;;;;;5068015;28;20060;-75
2023/05/24 02:49:09;;;;;;;6.50;1.98;;;8.50;99.90;;;;;;5074261;28;20083;-75
2023/05/24 02:51:35;;;;;;;7.10;1.88;;;8.50;99.90;;;;;;5067270;28;20490;-74
2023/05/24 02:54:02;;;;;;;5.55;1.83;;;8.50;99.90;;;;;;5066693;28;20287;-75
2023/05/24 02:56:28;;;;;;;6.82;1.60;;;8.50;99.90;;;;;;5085317;28;20349;-75
2023/05/24 02:58:54;;;;;;;11.95;1.83;;;8.50;99.90;;;;;;5088038;28;20036;-75
2023/05/24 03:01:20;;;;;;;5.97;1.65;;;8.50;99.90;;;;;;5067131;28;20040;-75
2023/05/24 03:03:46;;;;;;;6.25;1.67;;;8.50;99.90;;;;;;5104445;27;20060;-75
2023/05/24 03:06:15;;;;;;;9.23;1.45;;;8.50;99.90;;;;;;5071440;28;20084;-75
2023/05/24 03:08:41;;;;;;;6.47;1.60;;;8.50;99.90;;;;;;5101982;27;20594;-75
2023/05/24 03:11:06;;;;;;;8.68;1.98;;;8.50;99.90;;;;;;5084827;28;20028;-75
2023/05/24 03:13:32;;;;;;;6.40;2.00;;;8.50;99.90;;;;;;5050988;28;20517;-75
2023/05/24 03:15:58;;;;;;;11.00;1.80;;;8.60;99.90;;;;;;5099770;27;20048;-75
2023/05/24 03:18:23;;;;;;;7.00;1.60;;;8.60;99.90;;;;;;5068692;28;20036;-74
2023/05/24 03:20:49;;;;;;;4.97;1.67;;;8.60;99.90;;;;;;5068728;28;20135;-75
2023/05/24 03:23:15;;;;;;;9.98;1.85;;;8.60;99.90;;;;;;5069140;28;20418;-75
2023/05/24 03:25:41;;;;;;;4.60;1.35;;;8.70;99.90;;;;;;5068424;28;20079;-75
2023/05/24 03:28:06;;;;;;;3.97;1.40;;;8.70;99.90;;;;;;5073752;28;20375;-75
2023/05/24 03:30:32;;;;;;;5.93;1.40;;;8.70;99.90;;;;;;5067444;28;20039;-75
2023/05/24 03:32:58;;;;;;;7.22;2.08;;;8.60;99.90;;;;;;5065674;28;20439;-74
2023/05/24 03:35:24;;;;;;;5.07;1.50;;;8.60;99.90;;;;;;5100487;27;20083;-74
2023/05/24 03:37:49;;;;;;;6.30;1.50;;;8.60;99.90;;;;;;5080229;28;20044;-75
2023/05/24 03:40:15;;;;;;;8.15;1.38;;;8.60;99.90;;;;;;5068767;28;20032;-75
2023/05/24 03:42:41;;;;;;;12.00;1.77;;;8.60;99.90;;;;;;5066094;28;20048;-75
2023/05/24 03:45:07;;;;;;;7.90;1.92;;;8.60;99.90;;;;;;5064783;28;20097;-75
2023/05/24 03:47:32;;;;;;;8.25;2.25;;;8.60;99.90;;;;;;5066742;28;20066;-75
2023/05/24 03:49:58;;;;;;;7.75;2.53;;;8.60;99.90;;;;;;5069326;28;20068;-75
2023/05/24 03:52:24;;;;;;;9.45;1.60;;;8.60;99.90;;;;;;5068496;28;20058;-75
2023/05/24 03:54:50;;;;;;;7.03;1.45;;;8.60;99.90;;;;;;5064502;28;20437;-74
2023/05/24 03:57:16;;;;;;;6.10;1.90;;;8.60;99.90;;;;;;5068764;28;20032;-75
2023/05/24 03:59:41;;;;;;;6.13;1.95;;;8.60;99.90;;;;;;5067111;28;20506;-75
2023/05/24 04:02:07;;;;;;;10.10;1.40;;;8.60;99.90;;;;;;5073138;28;20032;-75
2023/05/24 04:04:33;;;;;;;6.90;1.42;;;8.60;99.90;;;;;;5070268;28;20337;-75
2023/05/24 04:06:58;;;;;;;5.85;1.42;;;8.70;99.90;;;;;;5068506;28;20135;-75
2023/05/24 04:09:24;;;;;;;3.55;1.30;;;8.70;99.90;;;;;;5066654;28;20138;-75
2023/05/24 04:11:50;;;;;;;10.23;1.55;;;8.70;99.90;;;;;;5067125;28;20044;-75
2023/05/24 04:14:16;;;;;;;7.68;1.83;;;8.70;99.90;;;;;;5055702;28;20043;-75
2023/05/24 04:16:43;;;;;;;3.75;1.52;;;8.80;99.90;;;;;;5065038;28;20037;-75
2023/05/24 04:19:09;;;;;;;4.25;1.30;;;8.80;99.90;;;;;;5065720;28;20090;-75
2023/05/24 04:21:36;;;;;;;6.03;1.92;;;8.80;99.90;;;;;;5070960;28;20377;-74
2023/05/24 04:24:03;;;;;;;4.60;1.40;;;8.90;99.90;;;;;;5066939;28;20085;-75
2023/05/24 04:26:29;;;;;;;5.85;1.98;;;8.90;99.90;;;;;;5070515;28;20029;-75
2023/05/24 04:28:55;;;;;;;5.13;1.30;;;8.90;99.90;;;;;;5082997;28;20032;-74
2023/05/24 04:31:21;;;;;;;4.65;1.88;;;8.90;99.90;;;;;;5064793;28;20264;-75
2023/05/24 04:33:48;;;;;;;5.15;1.48;;;8.90;99.90;;;;;;5067266;28;20230;-75
2023/05/24 04:36:15;;;;;;;4.65;1.40;;;8.90;99.90;;;;;;5100787;28;20200;-75
2023/05/24 04:38:40;;;;;;;9.68;1.95;;;8.90;99.90;;;;;;5049327;28;20075;-75
2023/05/24 04:41:06;;;;;;;8.32;2.10;;;9.00;99.90;;;;;;5068681;28;20075;-75
2023/05/24 04:43:33;;;;;;;6.88;1.52;;;9.00;99.90;;;;;;5066642;28;20082;-75
2023/05/24 04:45:59;;;;;;;4.68;1.38;;;9.00;99.90;;;;;;5067295;28;20044;-74
2023/05/24 04:48:24;;;;;;;8.02;1.70;;;9.10;99.90;;;;;;5071117;28;20052;-75
2023/05/24 04:50:54;;;;;;;8.45;1.20;;;9.10;99.90;;;;;;5066091;28;20063;-75
2023/05/24 04:53:21;;;;;;;12.00;2.17;;;9.10;99.90;;;;;;5066571;28;20116;-75
2023/05/24 04:55:48;;;;;;;4.82;1.27;;;9.20;99.90;;;;;;5069199;28;20308;-75
2023/05/24 04:58:15;;;;;;;8.10;1.40;;;9.20;99.90;;;;;;5100669;27;20040;-75
2023/05/24 05:00:41;;;;;;;3.90;1.40;;;9.20;99.90;;;;;;5096877;28;20333;-75
2023/05/24 05:03:07;;;;;;;6.65;1.40;;;9.30;99.90;;;;;;5068493;28;20401;-75
2023/05/24 05:05:32;;;;;;;4.82;1.77;;;9.30;99.90;;;;;;5066661;28;20040;-75
2023/05/24 05:07:58;;;;;;;5.35;1.50;;;9.40;99.90;;;;;;5070666;28;20111;-75
2023/05/24 05:10:25;;;;;;;7.63;1.85;;;9.40;99.90;;;;;;5090896;28;20477;-75
2023/05/24 05:12:51;;;;;;;4.93;1.52;;;9.40;99.90;;;;;;5068766;28;20128;-75
2023/05/24 05:15:16;;;;;;;6.28;1.20;;;9.50;99.90;;;;;;5067496;28;20482;-75
2023/05/24 05:17:42;;;;;;;7.32;1.95;;;9.60;99.90;;;;;;5068227;28;20051;-75
2023/05/24 05:20:08;;;;;;;7.88;1.35;;;9.60;99.90;;;;;;5070929;28;20050;-75
2023/05/24 05:22:33;;;;;;;4.55;1.42;;;9.70;99.90;;;;;;5069545;28;20060;-75
2023/05/24 05:24:59;;;;;;;12.60;2.00;;;9.70;99.90;;;;;;5069002;28;20039;-75
2023/05/24 05:27:25;;;;;;;8.93;1.63;;;9.70;99.90;;;;;;5074868;28;20063;-75
2023/05/24 05:29:51;;;;;;;6.80;1.73;;;9.70;99.90;;;;;;5104642;27;20071;-75
2023/05/24 05:32:17;;;;;;;8.00;1.65;;;9.80;99.90;;;;;;5069181;28;20250;-75
2023/05/24 05:34:42;;;;;;;6.70;1.50;;;9.80;99.90;;;;;;5070566;28;20505;-75
2023/05/24 05:37:08;;;;;;;6.43;1.33;;;9.80;99.90;;;;;;5098054;28;20044;-75
2023/05/24 05:39:34;;;;;;;6.40;1.15;;;9.90;99.90;;;;;;5084852;28;20032;-75
2023/05/24 05:42:01;;;;;;;9.60;1.45;;;9.90;99.90;;;;;;5077733;28;20428;-75
2023/05/24 05:44:26;;;;;;;5.63;1.35;;;10.00;99.90;;;;;;5077725;28;20044;-75
2023/05/24 05:46:52;;;;;;;5.53;1.58;;;10.00;99.90;;;;;;5082490;28;20036;-75
2023/05/24 05:49:18;;;;;;;8.80;1.30;;;10.10;99.90;;;;;;5076120;28;20465;-75
2023/05/24 05:51:45;;;;;;;4.20;1.58;;;10.10;99.90;;;;;;5072496;28;20130;-75
2023/05/24 05:54:17;;;;;;;8.07;1.40;;;10.10;99.90;;;;;;5071728;28;20493;-75
2023/05/24 05:56:46;;;;;;;7.65;1.60;;;10.20;99.90;;;;;;5075212;28;20044;-76
2023/05/24 05:59:14;;;;;;;5.32;1.80;;;10.20;99.90;;;;;;5083139;28;20513;-76
2023/05/24 06:01:40;;;;;;;7.43;1.52;;;10.20;99.90;;;;;;5076309;28;20454;-75
2023/05/24 06:04:06;;;;;;;5.22;1.25;;;10.20;99.90;;;;;;5079553;28;20444;-75
2023/05/24 06:06:32;;;;;;;11.00;1.63;;;10.30;99.90;;;;;;5113684;27;20040;-75
2023/05/24 06:08:59;;;;;;;4.00;1.10;;;10.40;99.90;;;;;;5079748;28;20044;-75
2023/05/24 06:11:25;;;;;;;5.93;1.33;;;10.50;99.90;;;;;;5077245;28;20059;-75
2023/05/24 06:13:51;;;;;;;3.15;1.15;;;10.60;99.90;;;;;;5078487;28;20091;-75
2023/05/24 06:16:17;;;;;;;3.42;1.20;;;10.70;99.90;;;;;;5055563;28;20040;-75
2023/05/24 06:18:43;;;;;;;8.27;1.98;;;10.90;99.90;;;;;;5111960;27;20040;-75
2023/05/24 06:21:09;;;;;;;7.55;1.10;;;11.00;99.90;;;;;;5080139;28;20089;-75
2023/05/24 06:23:38;;;;;;;7.85;1.30;;;11.10;99.90;;;;;;5052452;28;20055;-74
2023/05/24 06:26:04;;;;;;;6.47;1.30;;;11.20;99.90;;;;;;5077686;28;20093;-75
2023/05/24 06:28:30;;;;;;;5.13;1.75;;;11.30;99.90;;;;;;5074339;28;20032;-75
2023/05/24 06:30:55;;;;;;;4.60;1.20;;;11.50;99.90;;;;;;5096733;28;20062;-75
2023/05/24 06:33:21;;;;;;;11.85;1.55;;;11.60;99.90;;;;;;5078928;28;20071;-74
2023/05/24 06:35:47;;;;;;;5.65;1.23;;;11.60;99.90;;;;;;5080136;28;20040;-75
2023/05/24 06:38:13;;;;;;;5.00;1.30;;;11.70;99.90;;;;;;5060636;28;20047;-74
2023/05/24 06:40:39;;;;;;;3.97;1.25;;;11.70;99.90;;;;;;5109727;27;20035;-75
2023/05/24 06:43:05;;;;;;;5.03;1.85;;;11.70;99.90;;;;;;5079657;28;20041;-75
2023/05/24 06:45:31;;;;;;;5.82;1.23;;;11.60;99.90;;;;;;5080821;28;20441;-75
2023/05/24 06:47:56;;;;;;;4.38;1.02;;;11.60;99.90;;;;;;5078455;28;20032;-75
2023/05/24 06:50:22;;;;;;;9.05;1.30;;;11.70;99.90;;;;;;5074145;28;20163;-74
2023/05/24 06:52:48;;;;;;;4.22;1.25;;;11.80;99.90;;;;;;5107994;27;20101;-74
2023/05/24 06:55:14;;;;;;;5.97;1.45;;;11.80;99.90;;;;;;5081518;28;20397;-74
2023/05/24 06:57:40;;;;;;;5.25;1.13;;;11.80;99.90;;;;;;5073234;28;20028;-74
2023/05/24 07:00:10;;;;;;;5.50;1.08;;;11.70;99.90;;;;;;5079324;28;20035;-75
2023/05/24 07:02:37;;;;;;;8.55;1.77;;;11.70;99.90;;;;;;5076806;28;20035;-74
2023/05/24 07:05:02;;;;;;;4.80;1.05;;;11.70;99.90;;;;;;5108822;27;20395;-74
2023/05/24 07:07:28;;;;;;;7.88;1.45;;;11.60;99.90;;;;;;5069912;28;20035;-74
2023/05/24 07:09:54;;;;;;;6.53;1.30;;;11.60;99.90;;;;;;5066180;28;20040;-74
2023/05/24 07:12:20;;;;;;;5.30;1.63;;;11.60;99.90;;;;;;5114469;27;20032;-74
2023/05/24 07:14:46;;;;;;;3.25;1.08;;;11.50;99.90;;;;;;5083757;28;20550;-74
2023/05/24 07:17:12;;;;;;;8.43;1.75;;;11.50;99.90;;;;;;5070928;28;20385;-74
2023/05/24 07:19:37;;;;;;;6.18;1.10;;;11.50;99.90;;;;;;5071674;28;20028;-74
2023/05/24 07:22:03;;;;;;;8.15;1.23;;;11.50;99.90;;;;;;5075231;28;20152;-74
2023/05/24 07:24:28;;;;;;;3.25;0.98;;;11.50;99.90;;;;;;5065055;28;20045;-74
2023/05/24 07:26:56;;;;;;;3.83;1.08;;;11.60;99.90;;;;;;5069774;28;20701;-74
2023/05/24 07:29:22;;;;;;;5.43;1.20;;;11.80;99.90;;;;;;5083419;28;20036;-74
2023/05/24 07:31:47;;;;;;;2.67;0.95;;;11.90;99.90;;;;;;5068970;28;20477;-74
2023/05/24 07:34:14;;;;;;;3.95;0.98;;;11.90;99.90;;;;;;5076779;28;20520;-74
2023/05/24 07:36:39;;;;;;;4.75;0.85;;;11.90;99.90;;;;;;5069167;28;20078;-74
2023/05/24 07:39:08;;;;;;;4.50;1.13;;;11.90;99.90;;;;;;5066215;28;20040;-74
2023/05/24 07:41:34;;;;;;;6.97;1.38;;;11.90;99.90;;;;;;5101446;27;20440;-74
2023/05/24 07:44:00;;;;;;;5.60;1.33;;;11.90;99.90;;;;;;5067914;28;20051;-74
2023/05/24 07:46:25;;;;;;;8.38;1.23;;;11.90;99.90;;;;;;5070803;28;20033;-74
2023/05/24 07:48:52;;;;;;;4.18;1.30;;;11.90;99.90;;;;;;5074179;28;20079;-74
2023/05/24 07:51:18;;;;;;;8.00;1.60;;;11.90;99.90;;;;;;5107063;27;20050;-74
2023/05/24 07:53:43;;;;;;;2.53;1.02;;;12.00;99.90;;;;;;5074335;28;20033;-74
2023/05/24 07:56:09;;;;;;;5.35;0.93;;;12.00;99.90;;;;;;5072132;28;20132;-74
2023/05/24 07:58:34;;;;;;;6.65;1.10;;;11.90;99.90;;;;;;5073115;28;20465;-74
2023/05/24 08:01:00;;;;;;;5.32;1.25;;;11.90;99.90;;;;;;5080377;28;20119;-74
2023/05/24 08:03:26;;;;;;;6.28;1.00;;;11.90;99.90;;;;;;5075432;28;20072;-74
2023/05/24 08:05:52;;;;;;;3.35;0.77;;;11.80;99.90;;;;;;5072076;28;20043;-74
2023/05/24 08:08:18;;;;;;;4.32;1.17;;;11.80;99.90;;;;;;5068719;28;20072;-74
2023/05/24 08:10:44;;;;;;;4.30;1.33;;;11.80;99.90;;;;;;5070174;28;20044;-74
2023/05/24 08:13:10;;;;;;;4.70;1.45;;;11.90;99.90;;;;;;5069602;28;20406;-74
2023/05/24 08:15:35;;;;;;;6.85;1.20;;;12.00;99.90;;;;;;5102682;27;20071;-74
2023/05/24 08:18:02;;;;;;;7.07;1.00;;;12.10;99.90;;;;;;5072298;28;20059;-74
2023/05/24 08:20:27;;;;;;;4.15;1.25;;;12.20;99.90;;;;;;5073594;28;20131;-74
2023/05/24 08:22:53;;;;;;;5.82;1.30;;;12.20;99.90;;;;;;5071616;28;20466;-74
2023/05/24 08:25:19;;;;;;;6.25;1.52;;;12.30;99.90;;;;;;5076380;28;20553;-74
2023/05/24 08:27:45;;;;;;;7.95;1.30;;;12.30;99.90;;;;;;5070925;28;20037;-74
2023/05/24 08:30:13;;;;;;;8.10;1.40;;;12.30;99.90;;;;;;5064323;28;20708;-74
2023/05/24 08:32:38;;;;;;;4.93;1.00;;;12.30;99.90;;;;;;5069848;28;20539;-74
2023/05/24 08:35:04;;;;;;;5.43;1.52;;;12.30;99.90;;;;;;5068168;28;20032;-74
2023/05/24 08:37:32;;;;;;;2.78;1.20;;;12.30;99.90;;;;;;5069258;28;20039;-74
2023/05/24 08:39:58;;;;;;;4.97;1.63;;;12.30;99.90;;;;;;5071208;28;20119;-74
2023/05/24 08:42:24;;;;;;;5.05;1.20;;;12.40;99.90;;;;;;5071682;28;20135;-74
2023/05/24 08:45:03;;;;;;;6.43;1.50;;;12.40;99.90;;;;;;5062338;28;20051;-74
2023/05/24 08:47:31;;;;;;;7.55;1.50;;;12.40;99.90;;;;;;5103672;27;20131;-74
2023/05/24 08:49:57;;;;;;;6.88;1.50;;;12.50;99.90;;;;;;5072948;28;20420;-74
2023/05/24 08:52:23;;;;;;;2.22;0.95;;;12.60;99.90;;;;;;5107271;27;20036;-74
2023/05/24 08:54:50;;;;;;;5.60;1.65;;;12.60;99.90;;;;;;5070035;28;20529;-74
2023/05/24 08:57:17;;;;;;;5.25;1.42;;;12.60;99.90;;;;;;5072076;28;20112;-74
2023/05/24 08:59:43;;;;;;;3.95;1.10;;;12.60;99.90;;;;;;5070076;28;20507;-75
2023/05/24 09:02:12;;;;;;;2.65;1.05;;;12.60;99.90;;;;;;5063168;28;20036;-74
2023/05/24 09:04:40;;;;;;;7.97;1.90;;;12.60;99.90;;;;;;5076817;28;20054;-74
2023/05/24 09:07:06;;;;;;;9.07;1.33;;;12.60;99.90;;;;;;5072998;28;20032;-75
2023/05/24 09:09:33;;;;;;;6.78;1.20;;;12.50;99.90;;;;;;5057426;28;20025;-75
2023/05/24 09:12:02;;;;;;;7.80;1.20;;;12.60;99.90;;;;;;5060403;28;20629;-75
2023/05/24 09:14:28;;;;;;;2.30;1.00;;;12.70;99.90;;;;;;5080267;28;20045;-75
2023/05/24 09:16:54;;;;;;;9.10;1.17;;;12.70;99.90;;;;;;5107695;27;20036;-74
2023/05/24 09:19:20;;;;;;;5.10;1.15;;;12.80;99.90;;;;;;5081551;28;20092;-74
2023/05/24 09:21:48;;;;;;;3.45;1.10;;;12.80;99.90;;;;;;5078113;28;20245;-74
2023/05/24 09:24:14;;;;;;;4.00;1.10;;;12.70;99.90;;;;;;5092788;28;20536;-75
2023/05/24 09:26:40;;;;;;;4.75;0.77;;;12.80;99.90;;;;;;5078808;28;20043;-75
2023/05/24 09:29:07;;;;;;;4.60;1.15;;;12.80;99.90;;;;;;5077359;28;20436;-75
2023/05/24 09:31:34;;;;;;;5.57;1.10;;;12.90;99.90;;;;;;5056648;28;20039;-75
2023/05/24 09:34:00;;;;;;;5.80;1.20;;;12.90;99.30;;;;;;5083860;28;20055;-74
2023/05/24 09:36:29;;;;;;;4.57;1.20;;;12.90;99.90;;;;;;5074665;28;20048;-75
2023/05/24 09:39:09;;;;;;;5.20;0.82;;;13.00;99.90;;;;;;5075416;28;20707;-75
2023/05/24 09:41:42;;;;;;;4.78;1.10;;;13.00;98.90;;;;;;5076912;28;20063;-75
2023/05/24 09:44:07;;;;;;;3.80;1.08;;;13.10;99.50;;;;;;5085809;28;20054;-75
2023/05/24 09:46:39;;;;;;;4.25;1.20;;;13.20;99.40;;;;;;5082875;28;20405;-75
2023/05/24 09:49:08;;;;;;;4.57;0.90;;;13.20;98.70;;;;;;5087873;28;20125;-75
2023/05/24 09:51:37;;;;;;;3.67;1.10;;;13.30;99.00;;;;;;5085837;28;20036;-75
2023/05/24 09:54:04;;;;;;;2.33;0.70;;;13.40;98.80;;;;;;5109259;27;20051;-75
2023/05/24 09:56:32;;;;;;;5.07;1.05;;;13.40;98.40;;;;;;5077537;28;20043;-76
2023/05/24 09:59:03;;;;;;;2.85;0.90;;;13.50;98.00;;;;;;5075316;28;20039;-75
2023/05/24 10:01:32;;;;;;;4.10;1.00;;;13.50;98.40;;;;;;5077868;28;20150;-75
2023/05/24 10:03:59;;;;;;;5.85;1.23;;;13.50;98.60;;;;;;5061735;28;20127;-75
2023/05/24 10:06:24;;;;;;;2.58;1.13;;;13.50;98.80;;;;;;5079720;28;20354;-75
2023/05/24 10:08:51;;;;;;;2.85;1.00;;;13.60;98.90;;;;;;5073426;28;20029;-75
2023/05/24 10:11:17;;;;;;;2.45;0.80;;;13.60;98.60;;;;;;5089531;27;20858;-75
2023/05/24 10:13:43;;;;;;;10.57;1.35;;;13.70;98.60;;;;;;5079534;28;20440;-75
2023/05/24 10:16:09;;;;;;;3.85;1.00;;;13.60;98.30;;;;;;5073535;28;20036;-75
2023/05/24 10:18:34;;;;;;;4.90;1.08;;;13.60;97.80;;;;;;5078704;28;20044;-75
2023/05/24 10:21:01;;;;;;;3.20;1.08;;;13.60;97.40;;;;;;5076450;28;20615;-75
2023/05/24 10:23:31;;;;;;;4.00;1.00;;;13.60;97.80;;;;;;5076824;28;20565;-75
2023/05/24 10:26:07;;;;;;;5.15;1.10;;;13.70;98.00;;;;;;5069726;28;20044;-76
2023/05/24 10:28:53;;;;;;;3.25;1.10;;;13.70;97.40;;;;;;5074591;28;20089;-75
2023/05/24 10:31:31;;;;;;;3.08;0.98;;;13.70;96.00;;;;;;5103339;27;20039;-75
2023/05/24 10:33:59;;;;;;;8.05;1.48;;;13.80;97.70;;;;;;5069137;28;20553;-75
2023/05/24 10:36:25;;;;;;;5.88;1.33;;;13.80;98.10;;;;;;5068701;28;20032;-75
2023/05/24 10:38:52;;;;;;;4.32;0.90;;;13.80;98.40;;;;;;5073867;28;20055;-75
2023/05/24 10:41:18;;;;;;;4.03;1.40;;;13.80;98.20;;;;;;5056916;28;20049;-75
2023/05/24 10:43:47;;;;;;;4.50;1.20;;;13.90;98.40;;;;;;5068692;28;20036;-75
2023/05/24 10:46:17;;;;;;;5.85;1.10;;;13.90;98.20;;;;;;5070609;28;20127;-75
2023/05/24 10:48:43;;;;;;;3.65;1.00;;;13.90;98.40;;;;;;5073362;28;20997;-74
2023/05/24 10:51:31;;;;;;;2.17;0.95;;;13.80;98.00;;;;;;5076811;28;20040;-74
2023/05/24 10:53:57;;;;;;;4.70;1.10;;;13.80;97.90;;;;;;5079152;27;20068;-75
2023/05/24 10:56:25;;;;;;;4.22;1.10;;;13.70;98.30;;;;;;5075230;28;20324;-75
2023/05/24 10:58:56;;;;;;;3.28;1.02;;;13.70;98.40;;;;;;5069769;28;20166;-75
2023/05/24 11:01:30;;;;;;;5.40;1.17;;;13.80;98.20;;;;;;5077652;28;20494;-75
2023/05/24 11:04:15;;;;;;;1.45;0.73;;;13.80;96.90;;;;;;5104004;27;20401;-75
2023/05/24 11:06:56;;;;;;;5.78;1.02;;;13.70;97.10;;;;;;5077229;28;20477;-75
2023/05/24 11:09:23;;;;;;;2.05;0.80;;;13.70;96.80;;;;;;5108702;27;20101;-75
2023/05/24 11:11:53;;;;;;;6.28;0.98;;;13.80;97.50;;;;;;5103272;27;20045;-75
2023/05/24 11:14:22;;;;;;;3.30;0.80;;;13.90;97.10;;;;;;5074136;28;20492;-75
2023/05/24 11:16:50;;;;;;;3.15;0.77;;;13.90;96.60;;;;;;5073269;28;20494;-75
2023/05/24 11:19:17;;;;;;;3.97;1.02;;;13.90;97.00;;;;;;5105192;27;20036;-75
2023/05/24 11:21:45;;;;;;;6.88;1.05;;;13.90;96.80;;;;;;5055845;28;20552;-74
2023/05/24 11:24:11;;;;;;;5.82;1.10;;;13.90;96.80;;;;;;5072442;28;20063;-75
2023/05/24 11:26:38;;;;;;;2.83;1.02;;;13.80;96.90;;;;;;5071768;28;20640;-75
2023/05/24 11:29:05;;;;;;;2.97;0.90;;;13.80;97.10;;;;;;5069985;28;20047;-75
2023/05/24 11:31:30;;;;;;;3.05;0.90;;;13.80;97.00;;;;;;5074164;28;20502;-74
2023/05/24 11:33:56;;;;;;;3.35;0.90;;;13.80;97.50;;;;;;5075205;28;20097;-75
2023/05/24 11:36:22;;;;;;;9.70;1.17;;;13.80;96.80;;;;;;5055391;28;20067;-75
2023/05/24 11:38:48;;;;;;;5.72;0.90;;;13.80;96.70;;;;;;5103477;27;20084;-75
2023/05/24 11:41:14;;;;;;;6.05;1.20;;;13.80;96.90;;;;;;5075075;28;20044;-74
2023/05/24 11:43:40;;;;;;;6.25;0.82;;;13.80;97.20;;;;;;5069711;28;20067;-75
2023/05/24 11:46:06;;;;;;;2.75;0.80;;;13.80;96.40;;;;;;5101901;27;20033;-75
2023/05/24 11:48:32;;;;;;;6.03;1.13;;;13.70;97.20;;;;;;5077421;28;20032;-74
2023/05/24 11:50:58;;;;;;;4.53;0.95;;;13.60;97.40;;;;;;5073226;28;20078;-75
2023/05/24 11:53:24;;;;;;;3.17;0.65;;;13.50;97.70;;;;;;5084467;28;20054;-75
2023/05/24 11:55:53;;;;;;;5.07;1.17;;;13.50;97.80;;;;;;5086104;28;20639;-74
2023/05/24 11:58:23;;;;;;;3.00;1.08;;;13.40;98.10;;;;;;5103503;27;20456;-74
2023/05/24 12:00:49;;;;;;;4.63;1.20;;;13.40;98.40;;;;;;5069841;28;20050;-74
2023/05/24 12:03:16;;;;;;;5.03;1.13;;;13.50;98.50;;;;;;5068335;28;20044;-75
2023/05/24 12:05:42;;;;;;;3.40;0.80;;;13.40;98.70;;;;;;5070144;28;20443;-74
2023/05/24 12:08:09;;;;;;;3.05;0.80;;;13.50;98.80;;;;;;5074018;28;20078;-74
2023/05/24 12:10:36;;;;;;;2.97;0.90;;;13.50;98.70;;;;;;5077457;28;20412;-74
2023/05/24 12:13:16;;;;;;;4.53;1.17;;;13.50;98.70;;;;;;5067734;28;20044;-75
2023/05/24 12:15:42;;;;;;;8.52;1.10;;;13.50;98.80;;;;;;5067286;28;20130;-74
2023/05/24 12:18:20;;;;;;;4.68;1.30;;;13.50;98.60;;;;;;5074516;28;20089;-74
2023/05/24 12:20:48;;;;;;;4.75;1.15;;;13.50;98.30;;;;;;5071967;28;20071;-74
2023/05/24 12:23:14;;;;;;;4.50;1.38;;;13.50;98.60;;;;;;5069555;28;20048;-74
2023/05/24 12:25:41;;;;;;;5.85;1.20;;;13.50;98.70;;;;;;5105472;27;20045;-74
2023/05/24 12:28:06;;;;;;;6.40;1.30;;;13.60;98.60;;;;;;5075339;28;20394;-74
2023/05/24 12:30:32;;;;;;;4.82;1.38;;;13.60;98.60;;;;;;5067287;28;20052;-75
2023/05/24 12:32:57;;;;;;;2.60;1.27;;;13.60;98.80;;;;;;5069616;28;20047;-74
2023/05/24 12:35:23;;;;;;;3.80;1.27;;;13.60;98.60;;;;;;5071309;28;20032;-74
2023/05/24 12:37:49;;;;;;;7.00;1.23;;;13.60;98.60;;;;;;5069027;28;20044;-75
2023/05/24 12:40:19;;;;;;;4.35;1.10;;;13.60;98.50;;;;;;5073670;28;20533;-74
2023/05/24 12:42:55;;;;;;;4.18;1.17;;;13.60;98.40;;;;;;5067505;28;20047;-74
2023/05/24 12:45:26;;;;;;;5.43;1.42;;;13.70;98.40;;;;;;5071136;28;20033;-74
2023/05/24 12:47:56;;;;;;;3.22;1.00;;;13.70;98.30;;;;;;5076650;28;20795;-74
2023/05/24 12:50:24;;;;;;;2.20;0.90;;;13.70;98.10;;;;;;5089535;28;20164;-74